Worland, WY (82401)

5:10 AM MST on February 11, 2016 (GMT -0700)
Worland Municipal | | Change Station
CLOSE
Current Station
Airport
Location: Worland,
Elevation: 4226 ft
Nearby Weather Stations

Elev 4226 ft 43.97 °N, 107.95 °W | Updated 17 minutes ago

Mostly Cloudy
Mostly Cloudy
29 °F
Feels Like 24 °F
N
5
Wind Variable Wind from SW

Today
High -- | Low -- °F
--% Chance of Precip.
Yesterday
High -- | Low -- °F
Precip. -- in
Pressure 30.16 in
Visibility 10.0 miles
Clouds Clear
Windchill 24 °F
Dew Point 25 °F
Humidity 85%
Rainfall 0.00 in
Snow Depth Not available.
7:17 AM 5:35 PM
Waxing Crescent, 11% visible
METAR KWRL 111153Z AUTO 23004KT 10SM CLR M02/M04 A3009 RMK AO2 SLP213 T10171039 10006 21039 55005
Pressure 30.16 in
Visibility 10.0 miles
Clouds Clear
Windchill 24 °F
Dew Point 25 °F
Humidity 85%
Rainfall 0.00 in
Snow Depth Not available.
7:17 AM 5:35 PM
Waxing Crescent, 11% visible
METAR KWRL 111153Z AUTO 23004KT 10SM CLR M02/M04 A3009 RMK AO2 SLP213 T10171039 10006 21039 55005

10-Day Weather Forecast

Almanac

Astronomy

Feb. 11, 2016 Rise Set
Actual Time
Civil Twilight
Nautical Twilight
Astronomical Twilight
Moon
Length of Visible Light
Length of Day
Tomorrow will be .
, % of the Moon is Illuminated

Today's Extremes

State Highs State Lows

Community

WunderPhotos

Upload Photos

1,892,035 photos uploaded!

WunderBlog® & News

Nearby

Air Quality

  Air Quality AQ Index Pollutant
Not available.

Snow Depth

Station Depth Elevation

Earthquake Activity

City Distance Mag. Time & Date
Minimum magnitude displayed is 2.5.

Coastal Water Temperatures

Place Temperature

Stations

Nearby Weather Stations

Station Location Temp. Windchill Dew Point Humidity Wind Precip. Elev Updated Type
                   

Watches & Warnings

There are currently no watches in effect.